createdAt,value
2022-12-24T00:01:05.174Z,-10.20
2022-12-24T00:03:32.908Z,-10.30
2022-12-24T00:06:03.799Z,-10.30
2022-12-24T00:08:30.664Z,-10.40
2022-12-24T00:10:57.783Z,-10.30
2022-12-24T00:13:24.582Z,-10.40
2022-12-24T00:15:51.841Z,-10.40
2022-12-24T00:18:18.695Z,-10.40
2022-12-24T00:20:49.838Z,-10.30
2022-12-24T00:23:17.269Z,-10.30
2022-12-24T00:25:44.620Z,-10.30
2022-12-24T00:28:12.185Z,-10.30
2022-12-24T00:30:39.673Z,-10.40
2022-12-24T00:33:06.930Z,-10.40
2022-12-24T00:35:35.328Z,-10.40
2022-12-24T00:38:03.862Z,-10.40
2022-12-24T00:40:31.529Z,-10.40
2022-12-24T00:42:58.264Z,-10.40
2022-12-24T00:45:26.992Z,-10.40
2022-12-24T00:47:53.944Z,-10.50
2022-12-24T00:50:20.862Z,-10.50
2022-12-24T00:52:47.725Z,-10.40
2022-12-24T00:55:15.687Z,-10.40
2022-12-24T00:57:42.587Z,-10.30
2022-12-24T01:00:09.921Z,-10.30
2022-12-24T01:02:36.897Z,-10.30
2022-12-24T01:05:13.187Z,-10.30
2022-12-24T01:07:44.099Z,-10.30
2022-12-24T01:10:12.807Z,-10.30
2022-12-24T01:12:40.210Z,-10.20
2022-12-24T01:15:07.547Z,-10.20
2022-12-24T01:17:34.902Z,-10.20
2022-12-24T01:20:02.209Z,-10.20
2022-12-24T01:22:29.087Z,-10.30
2022-12-24T01:24:56.146Z,-10.20
2022-12-24T01:27:23.439Z,-10.30
2022-12-24T01:29:50.265Z,-10.30
2022-12-24T01:32:17.374Z,-10.40
2022-12-24T01:34:44.166Z,-10.40
2022-12-24T01:37:10.963Z,-10.50
2022-12-24T01:39:37.908Z,-10.40
2022-12-24T01:42:42.283Z,-10.40
2022-12-24T01:45:30.837Z,-10.40
2022-12-24T01:47:57.768Z,-10.40
2022-12-24T01:50:24.770Z,-10.40
2022-12-24T01:52:51.679Z,-10.40
2022-12-24T01:55:20.481Z,-10.50
2022-12-24T01:57:52.304Z,-10.50
2022-12-24T02:00:19.488Z,-10.50
2022-12-24T02:02:49.255Z,-10.50
2022-12-24T02:05:35.065Z,-10.50
2022-12-24T02:08:04.195Z,-10.50
2022-12-24T02:10:31.635Z,-10.60
2022-12-24T02:12:59.508Z,-10.60
2022-12-24T02:15:29.047Z,-10.60
2022-12-24T02:18:37.672Z,-10.60
2022-12-24T02:21:04.456Z,-10.60
2022-12-24T02:24:05.395Z,-10.70
2022-12-24T02:27:09.830Z,-10.70
2022-12-24T02:30:01.797Z,-10.70
2022-12-24T02:32:43.849Z,-10.60
2022-12-24T02:35:39.736Z,-10.60
2022-12-24T02:38:21.308Z,-10.60
2022-12-24T02:41:22.041Z,-10.60
2022-12-24T02:43:51.489Z,-10.70
2022-12-24T02:46:25.497Z,-10.70
2022-12-24T02:48:53.061Z,-10.80
2022-12-24T02:51:24.680Z,-10.90
2022-12-24T02:53:51.752Z,-10.90
2022-12-24T02:56:24.681Z,-10.90
2022-12-24T02:59:35.708Z,-10.90
2022-12-24T03:02:35.000Z,-10.90
2022-12-24T03:05:08.391Z,-10.90
2022-12-24T03:07:40.482Z,-10.80
2022-12-24T03:10:22.172Z,-10.80
2022-12-24T03:12:56.180Z,-10.90
2022-12-24T03:15:25.783Z,-10.90
2022-12-24T03:17:57.067Z,-10.90
2022-12-24T03:20:32.210Z,-10.90
2022-12-24T03:22:59.156Z,-10.90
2022-12-24T03:25:27.121Z,-11.00
2022-12-24T03:27:56.661Z,-11.20
2022-12-24T03:30:24.043Z,-11.20
2022-12-24T03:32:50.793Z,-11.30
2022-12-24T03:35:17.705Z,-11.30
2022-12-24T03:37:45.296Z,-11.30
2022-12-24T03:40:12.563Z,-11.30
2022-12-24T03:42:39.695Z,-11.40
2022-12-24T03:45:07.142Z,-11.50
2022-12-24T03:47:33.923Z,-11.40
2022-12-24T03:50:00.669Z,-11.40
2022-12-24T03:52:27.564Z,-11.30
2022-12-24T03:54:54.364Z,-11.40
2022-12-24T03:57:21.296Z,-11.40
2022-12-24T03:59:48.056Z,-11.40
2022-12-24T04:02:15.054Z,-11.40
2022-12-24T04:04:42.130Z,-11.40
2022-12-24T04:07:09.176Z,-11.50
2022-12-24T04:09:36.303Z,-11.50
2022-12-24T04:12:03.387Z,-11.50
2022-12-24T04:14:30.510Z,-11.50
2022-12-24T04:16:57.503Z,-11.50
2022-12-24T04:19:24.388Z,-11.50
2022-12-24T04:21:51.241Z,-11.50
2022-12-24T04:24:18.135Z,-11.60
2022-12-24T04:26:45.078Z,-11.70
2022-12-24T04:29:11.868Z,-11.70
2022-12-24T04:31:38.708Z,-11.80
2022-12-24T04:34:05.563Z,-11.90
2022-12-24T04:36:32.383Z,-11.90
2022-12-24T04:38:59.262Z,-11.90
2022-12-24T04:41:26.144Z,-12.00
2022-12-24T04:43:55.038Z,-11.90
2022-12-24T04:46:25.093Z,-11.90
2022-12-24T04:48:53.622Z,-11.90
2022-12-24T04:51:20.641Z,-11.80
2022-12-24T04:53:47.507Z,-11.80
2022-12-24T04:56:20.129Z,-11.70
2022-12-24T04:58:47.246Z,-11.70
2022-12-24T05:01:18.258Z,-11.70
2022-12-24T05:03:45.381Z,-11.70
2022-12-24T05:06:15.582Z,-11.70
2022-12-24T05:08:43.772Z,-11.70
2022-12-24T05:11:14.290Z,-11.80
2022-12-24T05:13:47.546Z,-11.70
2022-12-24T05:16:16.957Z,-11.70
2022-12-24T05:18:43.901Z,-11.70
2022-12-24T05:21:16.396Z,-11.70
2022-12-24T05:24:02.430Z,-11.80
2022-12-24T05:26:36.502Z,-11.80
2022-12-24T05:29:04.988Z,-11.80
2022-12-24T05:31:33.612Z,-11.80
2022-12-24T05:34:01.145Z,-11.70
2022-12-24T05:36:27.907Z,-11.70
2022-12-24T05:38:54.804Z,-11.80
2022-12-24T05:41:22.202Z,-11.80
2022-12-24T05:43:49.482Z,-11.80
2022-12-24T05:46:19.250Z,-11.80
2022-12-24T05:48:47.127Z,-11.80
2022-12-24T05:51:15.922Z,-11.80
2022-12-24T05:53:42.711Z,-11.80
2022-12-24T05:56:12.159Z,-11.90
2022-12-24T05:58:40.406Z,-11.90
2022-12-24T06:01:08.175Z,-12.00
2022-12-24T06:03:35.905Z,-12.00
2022-12-24T06:06:06.392Z,-12.10
2022-12-24T06:08:34.668Z,-12.20
2022-12-24T06:11:03.671Z,-12.20
2022-12-24T06:13:30.922Z,-12.20
2022-12-24T06:15:59.083Z,-12.30
2022-12-24T06:18:26.673Z,-12.40
2022-12-24T06:20:54.953Z,-12.40
2022-12-24T06:23:22.371Z,-12.60
2022-12-24T06:25:49.736Z,-12.60
2022-12-24T06:28:17.409Z,-12.70
2022-12-24T06:30:51.038Z,-12.70
2022-12-24T06:33:18.257Z,-12.80
2022-12-24T06:35:46.487Z,-12.80
2022-12-24T06:38:14.748Z,-12.70
2022-12-24T06:40:43.860Z,-12.60
2022-12-24T06:43:10.907Z,-12.50
2022-12-24T06:45:37.770Z,-12.40
2022-12-24T06:48:05.023Z,-12.40
2022-12-24T06:50:33.733Z,-12.30
2022-12-24T06:53:00.569Z,-12.30
2022-12-24T06:55:27.578Z,-12.30
2022-12-24T06:57:54.451Z,-12.30
2022-12-24T07:00:24.479Z,-12.30
2022-12-24T07:02:51.414Z,-12.30
2022-12-24T07:05:18.508Z,-12.30
2022-12-24T07:07:45.676Z,-12.30
2022-12-24T07:10:16.696Z,-12.20
2022-12-24T07:12:43.994Z,-12.20
2022-12-24T07:15:12.062Z,-12.20
2022-12-24T07:17:39.523Z,-12.20
2022-12-24T07:20:08.905Z,-12.20
2022-12-24T07:22:35.712Z,-12.30
2022-12-24T07:25:02.656Z,-12.30
2022-12-24T07:27:30.461Z,-12.40
2022-12-24T07:29:57.242Z,-12.40
2022-12-24T07:32:24.213Z,-12.40
2022-12-24T07:34:51.010Z,-12.30
2022-12-24T07:37:17.755Z,-12.20
2022-12-24T07:39:45.762Z,-12.20
2022-12-24T07:42:12.533Z,-12.20
2022-12-24T07:44:39.911Z,-12.20
2022-12-24T07:47:06.824Z,-12.20
2022-12-24T07:49:34.813Z,-12.10
2022-12-24T07:52:01.725Z,-12.20
2022-12-24T07:54:28.586Z,-12.20
2022-12-24T07:56:55.506Z,-12.20
2022-12-24T07:59:22.346Z,-12.10
2022-12-24T08:01:49.291Z,-12.20
2022-12-24T08:04:16.249Z,-12.20
2022-12-24T08:06:43.007Z,-12.20
2022-12-24T08:09:09.820Z,-12.20
2022-12-24T08:11:36.652Z,-12.20
2022-12-24T08:14:03.438Z,-12.20
2022-12-24T08:16:30.361Z,-12.20
2022-12-24T08:18:57.375Z,-12.30
2022-12-24T08:21:24.139Z,-12.30
2022-12-24T08:23:51.095Z,-12.20
2022-12-24T08:26:17.949Z,-12.20
2022-12-24T08:28:44.725Z,-12.20
2022-12-24T08:31:11.654Z,-12.20
2022-12-24T08:33:38.615Z,-12.30
2022-12-24T08:36:05.730Z,-12.40
2022-12-24T08:38:33.103Z,-12.40
2022-12-24T08:40:59.948Z,-12.50
2022-12-24T08:43:27.005Z,-12.50
2022-12-24T08:45:54.232Z,-12.60
2022-12-24T08:48:21.216Z,-12.50
2022-12-24T08:50:48.000Z,-12.50
2022-12-24T08:53:14.839Z,-12.60
2022-12-24T08:55:42.361Z,-12.70
2022-12-24T08:58:09.153Z,-12.70
2022-12-24T09:00:36.549Z,-12.70
2022-12-24T09:03:03.468Z,-12.70
2022-12-24T09:05:30.335Z,-12.80
2022-12-24T09:07:57.142Z,-12.70
2022-12-24T09:10:24.377Z,-12.70
2022-12-24T09:12:51.328Z,-12.70
2022-12-24T09:15:19.048Z,-12.60
2022-12-24T09:17:45.851Z,-12.50
2022-12-24T09:20:12.789Z,-12.40
2022-12-24T09:22:40.215Z,-12.30
2022-12-24T09:25:07.443Z,-12.20
2022-12-24T09:27:34.399Z,-12.10
2022-12-24T09:30:01.304Z,-12.00
2022-12-24T09:32:28.097Z,-12.00
2022-12-24T09:34:54.934Z,-12.00
2022-12-24T09:37:21.699Z,-12.10
2022-12-24T09:39:48.635Z,-12.10
2022-12-24T09:42:31.556Z,-12.10
2022-12-24T09:45:16.846Z,-12.20
2022-12-24T09:47:56.905Z,-12.20
2022-12-24T09:50:42.082Z,-12.20
2022-12-24T09:54:04.591Z,-12.20
2022-12-24T09:56:35.152Z,-12.30
2022-12-24T09:59:04.908Z,-12.30
2022-12-24T10:01:34.213Z,-12.30
2022-12-24T10:04:05.585Z,-12.30
2022-12-24T10:06:46.719Z,-12.30
2022-12-24T10:09:36.751Z,-12.20
2022-12-24T10:12:36.188Z,-12.10
2022-12-24T10:15:27.891Z,-12.10
2022-12-24T10:18:20.374Z,-11.90
2022-12-24T10:21:02.627Z,-11.90
2022-12-24T10:23:40.084Z,-11.80
2022-12-24T10:26:13.389Z,-11.70
2022-12-24T10:28:45.965Z,-11.60
2022-12-24T10:31:13.839Z,-11.50
2022-12-24T10:33:53.777Z,-11.40
2022-12-24T10:36:28.724Z,-11.30
2022-12-24T10:38:56.005Z,-11.20
2022-12-24T10:41:25.308Z,-11.20
2022-12-24T10:43:53.258Z,-11.30
2022-12-24T10:46:36.391Z,-11.30
2022-12-24T10:49:12.837Z,-11.30
2022-12-24T10:52:18.352Z,-11.20
2022-12-24T10:55:19.560Z,-11.00
2022-12-24T10:57:56.639Z,-10.80
2022-12-24T11:00:28.601Z,-10.70
2022-12-24T11:03:13.960Z,-10.60
2022-12-24T11:05:41.256Z,-10.70
2022-12-24T11:08:13.737Z,-10.80
2022-12-24T11:10:53.855Z,-10.80
2022-12-24T11:13:37.806Z,-10.90
2022-12-24T11:16:24.206Z,-11.00
2022-12-24T11:18:53.616Z,-11.00
2022-12-24T11:21:29.453Z,-10.90
2022-12-24T11:24:09.249Z,-10.80
2022-12-24T11:26:36.642Z,-10.80
2022-12-24T11:29:23.667Z,-10.70
2022-12-24T11:31:52.749Z,-10.90
2022-12-24T11:34:29.290Z,-10.90
2022-12-24T11:37:15.324Z,-11.00
2022-12-24T11:39:48.635Z,-11.10
2022-12-24T11:42:36.851Z,-11.10
2022-12-24T11:45:26.543Z,-11.10
2022-12-24T11:47:54.888Z,-11.20
2022-12-24T11:50:28.789Z,-11.20
2022-12-24T11:53:04.546Z,-11.20
2022-12-24T11:55:40.747Z,-11.10
2022-12-24T11:58:28.795Z,-11.00
2022-12-24T12:01:16.198Z,-11.00
2022-12-24T12:03:49.516Z,-10.90
2022-12-24T12:06:31.581Z,-10.90
2022-12-24T12:09:04.492Z,-10.90
2022-12-24T12:11:33.858Z,-11.00
2022-12-24T12:14:03.305Z,-11.00
2022-12-24T12:17:01.125Z,-11.10
2022-12-24T12:19:53.179Z,-11.10
2022-12-24T12:22:30.818Z,-11.10
2022-12-24T12:24:59.594Z,-11.20
2022-12-24T12:27:39.617Z,-11.20
2022-12-24T12:30:15.707Z,-11.30
2022-12-24T12:32:53.843Z,-11.30
2022-12-24T12:35:40.773Z,-11.30
2022-12-24T12:38:21.705Z,-11.30
2022-12-24T12:41:27.072Z,-11.20
2022-12-24T12:44:31.545Z,-11.20
2022-12-24T12:47:07.242Z,-11.10
2022-12-24T12:49:50.823Z,-11.10
2022-12-24T12:52:56.448Z,-11.20
2022-12-24T12:55:48.547Z,-11.30
2022-12-24T12:58:37.677Z,-11.40
2022-12-24T13:01:55.350Z,-11.50
2022-12-24T13:04:28.245Z,-11.60
2022-12-24T13:07:07.226Z,-11.50
2022-12-24T13:09:46.208Z,-11.50
2022-12-24T13:12:31.700Z,-11.50
2022-12-24T13:15:06.881Z,-11.40
2022-12-24T13:18:13.077Z,-11.40
2022-12-24T13:20:48.252Z,-11.40
2022-12-24T13:23:19.419Z,-11.40
2022-12-24T13:25:54.840Z,-11.40
2022-12-24T13:28:24.731Z,-11.50
2022-12-24T13:31:11.499Z,-11.50
2022-12-24T13:33:38.317Z,-11.50
2022-12-24T13:36:10.379Z,-11.50
2022-12-24T13:38:49.962Z,-11.40
2022-12-24T13:41:38.249Z,-11.40
2022-12-24T13:44:12.988Z,-11.50
2022-12-24T13:47:16.060Z,-11.50
2022-12-24T13:49:45.214Z,-11.50
2022-12-24T13:52:11.953Z,-11.60
2022-12-24T13:54:40.188Z,-11.60
2022-12-24T13:57:44.850Z,-11.60
2022-12-24T14:00:32.468Z,-11.60
2022-12-24T14:03:14.995Z,-11.70
2022-12-24T14:05:46.383Z,-11.60
2022-12-24T14:08:24.395Z,-11.60
2022-12-24T14:11:15.748Z,-11.60
2022-12-24T14:13:42.527Z,-11.70
2022-12-24T14:16:17.817Z,-11.80
2022-12-24T14:18:49.818Z,-11.90
2022-12-24T14:21:26.632Z,-11.90
2022-12-24T14:24:01.698Z,-11.80
2022-12-24T14:26:32.693Z,-11.80
2022-12-24T14:29:25.044Z,-11.80
2022-12-24T14:31:57.795Z,-11.90
2022-12-24T14:34:25.149Z,-11.90
2022-12-24T14:36:54.719Z,-12.00
2022-12-24T14:39:26.934Z,-12.00
2022-12-24T14:42:35.257Z,-12.00
2022-12-24T14:45:16.771Z,-12.10
2022-12-24T14:48:18.381Z,-12.20
2022-12-24T14:51:13.292Z,-12.20
2022-12-24T14:54:02.964Z,-12.20
2022-12-24T14:56:29.877Z,-12.20
2022-12-24T14:58:59.067Z,-12.10
2022-12-24T15:01:28.320Z,-12.10
2022-12-24T15:04:10.138Z,-12.10
2022-12-24T15:06:47.979Z,-12.10
2022-12-24T15:09:22.314Z,-12.10
2022-12-24T15:11:52.456Z,-12.10
2022-12-24T15:14:21.296Z,-12.10
2022-12-24T15:16:58.343Z,-12.20
2022-12-24T15:19:32.058Z,-12.30
2022-12-24T15:21:59.312Z,-12.20
2022-12-24T15:24:32.401Z,-12.30
2022-12-24T15:27:02.953Z,-12.30
2022-12-24T15:29:32.324Z,-12.20
2022-12-24T15:32:06.304Z,-12.20
2022-12-24T15:34:35.774Z,-12.20
2022-12-24T15:37:16.683Z,-12.30
2022-12-24T15:39:44.664Z,-12.30
2022-12-24T15:42:19.033Z,-12.30
2022-12-24T15:44:54.752Z,-12.30
2022-12-24T15:47:27.400Z,-12.30
2022-12-24T15:49:54.472Z,-12.30
2022-12-24T15:52:24.998Z,-12.30
2022-12-24T15:54:57.776Z,-12.30
2022-12-24T15:57:31.649Z,-12.30
2022-12-24T16:00:00.846Z,-12.30
2022-12-24T16:02:35.388Z,-12.20
2022-12-24T16:05:33.320Z,-12.20
2022-12-24T16:08:15.174Z,-12.20
2022-12-24T16:10:47.265Z,-12.30
2022-12-24T16:13:29.749Z,-12.30
2022-12-24T16:16:03.201Z,-12.40
2022-12-24T16:18:54.233Z,-12.50
2022-12-24T16:21:28.731Z,-12.50
2022-12-24T16:23:58.205Z,-12.50
2022-12-24T16:26:25.035Z,-12.50
2022-12-24T16:28:51.915Z,-12.50
2022-12-24T16:31:29.501Z,-12.50
2022-12-24T16:33:59.105Z,-12.60
2022-12-24T16:36:26.399Z,-12.60
2022-12-24T16:39:25.532Z,-12.70
2022-12-24T16:42:18.998Z,-12.60
2022-12-24T16:44:47.006Z,-12.60
2022-12-24T16:47:26.088Z,-12.60
2022-12-24T16:49:53.342Z,-12.60
2022-12-24T16:52:22.656Z,-12.70
2022-12-24T16:54:53.092Z,-12.70
2022-12-24T16:57:20.052Z,-12.70
2022-12-24T16:59:47.080Z,-12.70
2022-12-24T17:02:16.372Z,-12.80
2022-12-24T17:04:44.169Z,-12.90
2022-12-24T17:07:17.623Z,-13.00
2022-12-24T17:09:44.624Z,-13.10
2022-12-24T17:12:11.452Z,-13.20
2022-12-24T17:14:39.877Z,-13.30
2022-12-24T17:17:06.904Z,-13.30
2022-12-24T17:19:33.674Z,-13.20
2022-12-24T17:22:00.419Z,-13.20
2022-12-24T17:24:27.260Z,-13.20
2022-12-24T17:26:54.014Z,-13.20
2022-12-24T17:29:20.796Z,-13.20
2022-12-24T17:31:47.694Z,-13.20
2022-12-24T17:34:14.425Z,-13.10
2022-12-24T17:36:41.244Z,-13.10
2022-12-24T17:39:08.127Z,-13.00
2022-12-24T17:41:34.890Z,-13.00
2022-12-24T17:44:01.709Z,-13.00
2022-12-24T17:46:28.654Z,-13.00
2022-12-24T17:48:55.853Z,-13.00
2022-12-24T17:51:23.538Z,-12.90
2022-12-24T17:53:50.626Z,-12.90
2022-12-24T17:56:17.887Z,-12.90
2022-12-24T17:58:46.111Z,-13.00
2022-12-24T18:01:17.219Z,-13.20
2022-12-24T18:03:45.107Z,-13.20
2022-12-24T18:06:12.979Z,-13.30
2022-12-24T18:08:41.858Z,-13.30
2022-12-24T18:11:18.144Z,-13.30
2022-12-24T18:13:45.676Z,-13.20
2022-12-24T18:16:23.406Z,-13.20
2022-12-24T18:18:51.122Z,-13.10
2022-12-24T18:21:20.186Z,-13.00
2022-12-24T18:23:48.557Z,-12.90
2022-12-24T18:26:16.111Z,-12.80
2022-12-24T18:28:43.190Z,-12.80
2022-12-24T18:31:14.729Z,-12.70
2022-12-24T18:33:41.810Z,-12.80
2022-12-24T18:36:09.525Z,-12.80
2022-12-24T18:38:37.362Z,-12.80
2022-12-24T18:41:08.186Z,-12.70
2022-12-24T18:43:35.161Z,-12.80
2022-12-24T18:46:14.296Z,-12.80
2022-12-24T18:48:41.497Z,-12.80
2022-12-24T18:51:09.409Z,-12.80
2022-12-24T18:53:36.707Z,-12.80
2022-12-24T18:56:14.189Z,-12.80
2022-12-24T18:58:42.367Z,-12.70
2022-12-24T19:01:24.074Z,-12.70
2022-12-24T19:03:51.373Z,-12.70
2022-12-24T19:06:19.363Z,-12.60
2022-12-24T19:09:02.178Z,-12.60
2022-12-24T19:11:31.656Z,-12.60
2022-12-24T19:13:59.048Z,-12.60
2022-12-24T19:16:26.825Z,-12.60
2022-12-24T19:18:53.996Z,-12.60
2022-12-24T19:21:21.123Z,-12.60
2022-12-24T19:23:48.455Z,-12.60
2022-12-24T19:26:17.295Z,-12.50
2022-12-24T19:28:44.731Z,-12.50
2022-12-24T19:31:23.998Z,-12.50
2022-12-24T19:33:56.846Z,-12.40
2022-12-24T19:36:27.120Z,-12.40
2022-12-24T19:38:54.999Z,-12.50
2022-12-24T19:41:24.961Z,-12.50
2022-12-24T19:43:54.619Z,-12.50
2022-12-24T19:46:27.636Z,-12.50
2022-12-24T19:49:00.219Z,-12.40
2022-12-24T19:51:28.580Z,-12.60
2022-12-24T19:53:56.380Z,-12.50
2022-12-24T19:56:24.881Z,-12.60
2022-12-24T19:58:51.973Z,-12.60
2022-12-24T20:01:21.530Z,-12.60
2022-12-24T20:03:49.889Z,-12.70
2022-12-24T20:06:18.954Z,-12.60
2022-12-24T20:08:46.339Z,-12.60
2022-12-24T20:11:14.672Z,-12.60
2022-12-24T20:13:42.397Z,-12.60
2022-12-24T20:16:14.705Z,-12.60
2022-12-24T20:18:42.005Z,-12.60
2022-12-24T20:21:11.735Z,-12.60
2022-12-24T20:23:40.059Z,-12.60
2022-12-24T20:26:08.574Z,-12.60
2022-12-24T20:28:36.816Z,-12.60
2022-12-24T20:31:30.022Z,-12.60
2022-12-24T20:33:59.321Z,-12.60
2022-12-24T20:36:27.523Z,-12.50
2022-12-24T20:38:55.064Z,-12.60
2022-12-24T20:41:24.092Z,-12.50
2022-12-24T20:43:51.649Z,-12.50
2022-12-24T20:46:20.732Z,-12.60
2022-12-24T20:48:48.759Z,-12.50
2022-12-24T20:51:25.429Z,-12.50
2022-12-24T20:53:59.179Z,-12.50
2022-12-24T20:56:26.835Z,-12.50
2022-12-24T20:58:53.768Z,-12.50
2022-12-24T21:01:26.365Z,-12.40
2022-12-24T21:03:55.024Z,-12.40
2022-12-24T21:06:23.212Z,-12.40
2022-12-24T21:08:51.496Z,-12.30
2022-12-24T21:11:45.179Z,-12.30
2022-12-24T21:14:12.487Z,-12.30
2022-12-24T21:16:40.211Z,-12.20
2022-12-24T21:19:09.355Z,-12.10
2022-12-24T21:21:36.779Z,-12.00
2022-12-24T21:24:04.251Z,-12.00
2022-12-24T21:26:32.111Z,-12.00
2022-12-24T21:28:59.882Z,-12.00
2022-12-24T21:31:27.870Z,-12.00
2022-12-24T21:33:55.758Z,-12.00
2022-12-24T21:36:22.581Z,-12.00
2022-12-24T21:38:49.641Z,-12.00
2022-12-24T21:41:20.218Z,-12.00
2022-12-24T21:43:47.167Z,-12.00
2022-12-24T21:46:18.725Z,-12.00
2022-12-24T21:49:04.740Z,-12.00
2022-12-24T21:51:32.400Z,-11.90
2022-12-24T21:54:18.042Z,-11.90
2022-12-24T21:57:03.430Z,-11.90
2022-12-24T21:59:30.606Z,-11.90
2022-12-24T22:01:58.195Z,-11.90
2022-12-24T22:04:25.573Z,-11.90
2022-12-24T22:07:11.566Z,-11.90
2022-12-24T22:09:57.754Z,-11.90
2022-12-24T22:12:25.291Z,-11.90
2022-12-24T22:14:52.114Z,-11.80
2022-12-24T22:17:24.763Z,-11.80
2022-12-24T22:19:53.284Z,-11.70
2022-12-24T22:22:20.225Z,-11.80
2022-12-24T22:24:46.977Z,-11.70
2022-12-24T22:27:14.034Z,-11.70
2022-12-24T22:29:40.806Z,-11.80
2022-12-24T22:32:07.673Z,-11.70
2022-12-24T22:34:36.413Z,-11.80
2022-12-24T22:37:03.308Z,-11.70
2022-12-24T22:39:30.125Z,-11.80
2022-12-24T22:41:58.072Z,-11.80
2022-12-24T22:44:25.298Z,-11.80
2022-12-24T22:46:52.123Z,-11.80
2022-12-24T22:49:19.019Z,-11.80
2022-12-24T22:51:45.821Z,-11.80
2022-12-24T22:54:12.710Z,-11.80
2022-12-24T22:56:41.476Z,-11.80
2022-12-24T22:59:12.131Z,-11.70
2022-12-24T23:01:41.256Z,-11.70
2022-12-24T23:04:08.586Z,-11.60
2022-12-24T23:06:35.840Z,-11.60
2022-12-24T23:09:04.387Z,-11.60
2022-12-24T23:11:31.488Z,-11.60
2022-12-24T23:14:16.997Z,-11.60
2022-12-24T23:16:43.909Z,-11.70
2022-12-24T23:19:10.768Z,-11.70
2022-12-24T23:21:38.481Z,-11.70
2022-12-24T23:24:05.916Z,-11.70
2022-12-24T23:26:32.788Z,-11.60
2022-12-24T23:28:59.725Z,-11.60
2022-12-24T23:31:26.838Z,-11.60
2022-12-24T23:33:53.783Z,-11.60
2022-12-24T23:36:21.325Z,-11.60
2022-12-24T23:38:48.695Z,-11.60
2022-12-24T23:41:18.880Z,-11.60
2022-12-24T23:43:46.505Z,-11.60
2022-12-24T23:46:15.363Z,-11.60
2022-12-24T23:48:42.807Z,-11.60
2022-12-24T23:51:11.851Z,-11.60
2022-12-24T23:53:39.017Z,-11.60
2022-12-24T23:56:06.730Z,-11.60
2022-12-24T23:58:33.597Z,-11.50
